PWSweather.com
Personal Weather Stations
Station Observations
KCAOCEAN4
Jeffries Ranch, Oceanside, CA 92057

Jeffries RanchOceanside, CA 92057

Lat: 33.2463208, Lon: -117.25335080000002

Elevation: 207

Station Type: Davis Vantage Vue

jeffriesranchweather.com

High Low Average
Temperature 62.2°F16.8°C 32.2°F0.1°C 46.5°F8.1°C
Dew Point 37.6°F3.1°C 18.5°F-7.5°C 30.0°F-1.1°C
Winds 11.0 mph 17.7 kmh Calm Calm 3.0 mph SE4.8 kmh SE
Wind Gusts 19.0 mph30.6 kmh -- 7.0 mph11.3 kmh
Humidity 84% 20% 58%
Pressure 30.34 in1027.4 mb 30.16 in1021.3 mb -
Precipitation 0.00 in0.0 mm - -
Hour Temp Dew Point Humidity Winds Wind Gusts Pressure Precip Precip Rate Daily Precip Total
12:07 AM 38.7°F3.7°C 32.0°F0.0°C 77% 0.9 mph SE1.4 kmh SE 4.0 mph6.4 kmh 30.26 in1024.7 mb 0.00 in0.0 mm 0.00 in0.0 mm 0.00 in0.0 mm
12:17 AM 38.1°F3.4°C 31.8°F-0.1°C 78% Calm Calm 2.9 mph4.7 kmh 30.26 in1024.7 mb 0.00 in0.0 mm 0.00 in0.0 mm 0.00 in0.0 mm
12:27 AM 38.1°F3.4°C 31.8°F-0.1°C 78% 2.0 mph ENE3.2 kmh ENE 4.9 mph7.9 kmh 30.26 in1024.7 mb 0.00 in0.0 mm 0.00 in0.0 mm 0.00 in0.0 mm
12:37 AM 38.5°F3.6°C 32.2°F0.1°C 78% 2.0 mph ENE3.2 kmh ENE 4.0 mph6.4 kmh 30.27 in1025.1 mb 0.00 in0.0 mm 0.00 in0.0 mm 0.00 in0.0 mm
12:47 AM 38.5°F3.6°C 31.8°F-0.1°C 77% 2.0 mph ENE3.2 kmh ENE 4.0 mph6.4 kmh 30.27 in1025.1 mb 0.00 in0.0 mm 0.00 in0.0 mm 0.00 in0.0 mm
12:57 AM 38.1°F3.4°C 31.8°F-0.1°C 78% 2.0 mph ENE3.2 kmh ENE 5.0 mph8.0 kmh 30.27 in1025.1 mb 0.00 in0.0 mm 0.00 in0.0 mm 0.00 in0.0 mm
01:07 AM 37.9°F3.3°C 31.6°F-0.2°C 78% 2.9 mph E4.7 kmh E 6.9 mph11.1 kmh 30.27 in1025.1 mb 0.00 in0.0 mm 0.00 in0.0 mm 0.00 in0.0 mm
01:17 AM 37.8°F3.2°C 31.5°F-0.3°C 78% 2.0 mph E3.2 kmh E 6.0 mph9.7 kmh 30.27 in1025.1 mb 0.00 in0.0 mm 0.00 in0.0 mm 0.00 in0.0 mm
01:27 AM 37.0°F2.8°C 31.1°F-0.5°C 79% 0.9 mph E1.4 kmh E 2.9 mph4.7 kmh 30.27 in1025.1 mb 0.00 in0.0 mm 0.00 in0.0 mm 0.00 in0.0 mm
01:37 AM 36.9°F2.7°C 31.6°F-0.2°C 81% Calm Calm 4.0 mph6.4 kmh 30.28 in1025.4 mb 0.00 in0.0 mm 0.00 in0.0 mm 0.00 in0.0 mm
01:47 AM 37.0°F2.8°C 31.5°F-0.3°C 80% 0.9 mph ENE1.4 kmh ENE 4.0 mph6.4 kmh 30.28 in1025.4 mb 0.00 in0.0 mm 0.00 in0.0 mm 0.00 in0.0 mm
01:57 AM 36.3°F2.4°C 30.7°F-0.7°C 80% 2.0 mph E3.2 kmh E 4.0 mph6.4 kmh 30.28 in1025.4 mb 0.00 in0.0 mm 0.00 in0.0 mm 0.00 in0.0 mm
02:07 AM 36.3°F2.4°C 30.7°F-0.7°C 80% 2.9 mph ENE4.7 kmh ENE 6.0 mph9.7 kmh 30.28 in1025.4 mb 0.00 in0.0 mm 0.00 in0.0 mm 0.00 in0.0 mm
02:17 AM 36.0°F2.2°C 30.7°F-0.7°C 81% 2.0 mph E3.2 kmh E 4.9 mph7.9 kmh 30.29 in1025.7 mb 0.00 in0.0 mm 0.00 in0.0 mm 0.00 in0.0 mm
02:27 AM 35.4°F1.9°C 30.6°F-0.8°C 82% 2.0 mph E3.2 kmh E 4.0 mph6.4 kmh 30.28 in1025.4 mb 0.00 in0.0 mm 0.00 in0.0 mm 0.00 in0.0 mm
02:37 AM 35.6°F2.0°C 30.7°F-0.7°C 82% 2.0 mph E3.2 kmh E 5.0 mph8.0 kmh 30.28 in1025.4 mb 0.00 in0.0 mm 0.00 in0.0 mm 0.00 in0.0 mm
02:47 AM 35.2°F1.8°C 30.4°F-0.9°C 82% 0.9 mph NE1.4 kmh NE 4.0 mph6.4 kmh 30.28 in1025.4 mb 0.00 in0.0 mm 0.00 in0.0 mm 0.00 in0.0 mm
02:57 AM 35.1°F1.7°C 30.2°F-1.0°C 82% 2.0 mph NE3.2 kmh NE 4.9 mph7.9 kmh 30.28 in1025.4 mb 0.00 in0.0 mm 0.00 in0.0 mm 0.00 in0.0 mm
03:07 AM 34.9°F1.6°C 30.0°F-1.1°C 82% 2.0 mph NE3.2 kmh NE 6.0 mph9.7 kmh 30.28 in1025.4 mb 0.00 in0.0 mm 0.00 in0.0 mm 0.00 in0.0 mm
03:17 AM 34.7°F1.5°C 29.8°F-1.2°C 82% 2.0 mph E3.2 kmh E 6.0 mph9.7 kmh 30.28 in1025.4 mb 0.00 in0.0 mm 0.00 in0.0 mm 0.00 in0.0 mm
03:27 AM 34.9°F1.6°C 30.2°F-1.0°C 83% 2.0 mph E3.2 kmh E 6.0 mph9.7 kmh 30.28 in1025.4 mb 0.00 in0.0 mm 0.00 in0.0 mm 0.00 in0.0 mm
03:37 AM 35.1°F1.7°C 30.2°F-1.0°C 82% 2.9 mph ENE4.7 kmh ENE 6.9 mph11.1 kmh 30.28 in1025.4 mb 0.00 in0.0 mm 0.00 in0.0 mm 0.00 in0.0 mm
03:47 AM 34.5°F1.4°C 29.7°F-1.3°C 82% 2.9 mph E4.7 kmh E 6.9 mph11.1 kmh 30.28 in1025.4 mb 0.00 in0.0 mm 0.00 in0.0 mm 0.00 in0.0 mm
03:57 AM 34.5°F1.4°C 29.7°F-1.3°C 82% 2.9 mph E4.7 kmh E 6.9 mph11.1 kmh 30.28 in1025.4 mb 0.00 in0.0 mm 0.00 in0.0 mm 0.00 in0.0 mm
04:07 AM 34.3°F1.3°C 29.5°F-1.4°C 82% 2.9 mph ENE4.7 kmh ENE 8.1 mph13.0 kmh 30.28 in1025.4 mb 0.00 in0.0 mm 0.00 in0.0 mm 0.00 in0.0 mm
04:17 AM 34.2°F1.2°C 29.5°F-1.4°C 83% 4.0 mph NE6.4 kmh NE 8.1 mph13.0 kmh 30.28 in1025.4 mb 0.00 in0.0 mm 0.00 in0.0 mm 0.00 in0.0 mm
04:27 AM 34.2°F1.2°C 29.5°F-1.4°C 83% 2.9 mph ENE4.7 kmh ENE 6.9 mph11.1 kmh 30.28 in1025.4 mb 0.00 in0.0 mm 0.00 in0.0 mm 0.00 in0.0 mm
04:37 AM 33.8°F1.0°C 29.1°F-1.6°C 83% 2.9 mph NE4.7 kmh NE 6.0 mph9.7 kmh 30.28 in1025.4 mb 0.00 in0.0 mm 0.00 in0.0 mm 0.00 in0.0 mm
04:47 AM 33.6°F0.9°C 28.9°F-1.7°C 83% 2.9 mph NE4.7 kmh NE 6.9 mph11.1 kmh 30.29 in1025.7 mb 0.00 in0.0 mm 0.00 in0.0 mm 0.00 in0.0 mm
04:57 AM 33.4°F0.8°C 28.8°F-1.8°C 83% 2.0 mph ENE3.2 kmh ENE 6.0 mph9.7 kmh 30.29 in1025.7 mb 0.00 in0.0 mm 0.00 in0.0 mm 0.00 in0.0 mm
05:07 AM 33.6°F0.9°C 29.3°F-1.5°C 84% 4.9 mph E7.9 kmh E 9.0 mph14.5 kmh 30.29 in1025.7 mb 0.00 in0.0 mm 0.00 in0.0 mm 0.00 in0.0 mm
05:17 AM 33.8°F1.0°C 28.9°F-1.7°C 82% 4.9 mph ENE7.9 kmh ENE 8.1 mph13.0 kmh 30.29 in1025.7 mb 0.00 in0.0 mm 0.00 in0.0 mm 0.00 in0.0 mm
05:27 AM 34.2°F1.2°C 29.3°F-1.5°C 82% 2.0 mph NE3.2 kmh NE 5.0 mph8.0 kmh 30.29 in1025.7 mb 0.00 in0.0 mm 0.00 in0.0 mm 0.00 in0.0 mm
05:37 AM 33.6°F0.9°C 28.8°F-1.8°C 82% 2.9 mph ENE4.7 kmh ENE 8.1 mph13.0 kmh 30.30 in1026.1 mb 0.00 in0.0 mm 0.00 in0.0 mm 0.00 in0.0 mm
05:47 AM 33.4°F0.8°C 28.6°F-1.9°C 82% 4.9 mph E7.9 kmh E 8.9 mph14.3 kmh 30.30 in1026.1 mb 0.00 in0.0 mm 0.00 in0.0 mm 0.00 in0.0 mm
05:57 AM 33.3°F0.7°C 28.4°F-2.0°C 82% 2.0 mph ENE3.2 kmh ENE 6.0 mph9.7 kmh 30.30 in1026.1 mb 0.00 in0.0 mm 0.00 in0.0 mm 0.00 in0.0 mm
06:07 AM 33.4°F0.8°C 28.6°F-1.9°C 82% 2.0 mph NE3.2 kmh NE 4.9 mph7.9 kmh 30.31 in1026.4 mb 0.00 in0.0 mm 0.00 in0.0 mm 0.00 in0.0 mm
06:17 AM 33.3°F0.7°C 28.0°F-2.2°C 81% 2.9 mph ENE4.7 kmh ENE 8.1 mph13.0 kmh 30.31 in1026.4 mb 0.00 in0.0 mm 0.00 in0.0 mm 0.00 in0.0 mm
06:27 AM 32.5°F0.3°C 27.7°F-2.4°C 82% 4.0 mph NE6.4 kmh NE 8.1 mph13.0 kmh 30.32 in1026.8 mb 0.00 in0.0 mm 0.00 in0.0 mm 0.00 in0.0 mm
06:37 AM 32.4°F0.2°C 27.9°F-2.3°C 83% 4.0 mph E6.4 kmh E 8.1 mph13.0 kmh 30.32 in1026.8 mb 0.00 in0.0 mm 0.00 in0.0 mm 0.00 in0.0 mm
06:47 AM 32.2°F0.1°C 27.7°F-2.4°C 83% 2.9 mph NE4.7 kmh NE 8.1 mph13.0 kmh 30.32 in1026.8 mb 0.00 in0.0 mm 0.00 in0.0 mm 0.00 in0.0 mm
06:57 AM 32.2°F0.1°C 27.9°F-2.3°C 84% 2.9 mph E4.7 kmh E 6.9 mph11.1 kmh 30.32 in1026.8 mb 0.00 in0.0 mm 0.00 in0.0 mm 0.00 in0.0 mm
07:07 AM 32.4°F0.2°C 27.5°F-2.5°C 82% 2.0 mph ENE3.2 kmh ENE 6.0 mph9.7 kmh 30.31 in1026.4 mb 0.00 in0.0 mm 0.00 in0.0 mm 0.00 in0.0 mm
07:17 AM 32.5°F0.3°C 27.3°F-2.6°C 81% 4.9 mph NE7.9 kmh NE 8.1 mph13.0 kmh 30.31 in1026.4 mb 0.00 in0.0 mm 0.00 in0.0 mm 0.00 in0.0 mm
07:27 AM 32.5°F0.3°C 27.3°F-2.6°C 81% 2.9 mph NE4.7 kmh NE 6.9 mph11.1 kmh 30.32 in1026.8 mb 0.00 in0.0 mm 0.00 in0.0 mm 0.00 in0.0 mm
07:37 AM 34.0°F1.1°C 27.1°F-2.7°C 76% 4.0 mph NE6.4 kmh NE 9.0 mph14.5 kmh 30.32 in1026.8 mb 0.00 in0.0 mm 0.00 in0.0 mm 0.00 in0.0 mm
07:47 AM 33.8°F1.0°C 26.8°F-2.9°C 75% 2.9 mph NE4.7 kmh NE 6.9 mph11.1 kmh 30.32 in1026.8 mb 0.00 in0.0 mm 0.00 in0.0 mm 0.00 in0.0 mm
07:57 AM 33.6°F0.9°C 26.8°F-2.9°C 76% 4.0 mph ENE6.4 kmh ENE 8.9 mph14.3 kmh 30.32 in1026.8 mb 0.00 in0.0 mm 0.00 in0.0 mm 0.00 in0.0 mm
08:07 AM 34.2°F1.2°C 26.8°F-2.9°C 74% 4.0 mph NE6.4 kmh NE 8.1 mph13.0 kmh 30.32 in1026.8 mb 0.00 in0.0 mm 0.00 in0.0 mm 0.00 in0.0 mm
08:17 AM 34.7°F1.5°C 27.0°F-2.8°C 73% 2.9 mph NE4.7 kmh NE 6.9 mph11.1 kmh 30.32 in1026.8 mb 0.00 in0.0 mm 0.00 in0.0 mm 0.00 in0.0 mm
08:27 AM 36.1°F2.3°C 27.7°F-2.4°C 71% 2.0 mph ENE3.2 kmh ENE 6.0 mph9.7 kmh 30.33 in1027.1 mb 0.00 in0.0 mm 0.00 in0.0 mm 0.00 in0.0 mm
08:37 AM 37.6°F3.1°C 28.0°F-2.2°C 68% 0.9 mph NE1.4 kmh NE 4.0 mph6.4 kmh 30.33 in1027.1 mb 0.00 in0.0 mm 0.00 in0.0 mm 0.00 in0.0 mm
08:47 AM 38.8°F3.8°C 28.0°F-2.2°C 65% 0.9 mph ENE1.4 kmh ENE 4.0 mph6.4 kmh 30.34 in1027.4 mb 0.00 in0.0 mm 0.00 in0.0 mm 0.00 in0.0 mm
08:57 AM 40.5°F4.7°C 29.3°F-1.5°C 64% 0.9 mph E1.4 kmh E 2.9 mph4.7 kmh 30.34 in1027.4 mb 0.00 in0.0 mm 0.00 in0.0 mm 0.00 in0.0 mm
09:07 AM 41.5°F5.3°C 27.9°F-2.3°C 58% 0.9 mph NE1.4 kmh NE 4.0 mph6.4 kmh 30.34 in1027.4 mb 0.00 in0.0 mm 0.00 in0.0 mm 0.00 in0.0 mm
09:17 AM 43.2°F6.2°C 26.2°F-3.2°C 51% 2.9 mph NE4.7 kmh NE 6.9 mph11.1 kmh 30.34 in1027.4 mb 0.00 in0.0 mm 0.00 in0.0 mm 0.00 in0.0 mm
09:27 AM 44.2°F6.8°C 26.2°F-3.2°C 49% 2.9 mph N4.7 kmh N 8.1 mph13.0 kmh 30.34 in1027.4 mb 0.00 in0.0 mm 0.00 in0.0 mm 0.00 in0.0 mm
09:37 AM 45.7°F7.6°C 26.6°F-3.0°C 47% 2.9 mph ENE4.7 kmh ENE 6.0 mph9.7 kmh 30.34 in1027.4 mb 0.00 in0.0 mm 0.00 in0.0 mm 0.00 in0.0 mm
09:47 AM 46.8°F8.2°C 24.8°F-4.0°C 42% 4.0 mph NE6.4 kmh NE 9.0 mph14.5 kmh 30.34 in1027.4 mb 0.00 in0.0 mm 0.00 in0.0 mm 0.00 in0.0 mm
09:57 AM 47.8°F8.8°C 25.3°F-3.7°C 41% 4.0 mph N6.4 kmh N 8.1 mph13.0 kmh 30.33 in1027.1 mb 0.00 in0.0 mm 0.00 in0.0 mm 0.00 in0.0 mm
10:07 AM 49.3°F9.6°C 26.1°F-3.3°C 40% 2.9 mph ENE4.7 kmh ENE 8.1 mph13.0 kmh 30.33 in1027.1 mb 0.00 in0.0 mm 0.00 in0.0 mm 0.00 in0.0 mm
10:17 AM 50.5°F10.3°C 25.9°F-3.4°C 38% 2.0 mph NNE3.2 kmh NNE 6.0 mph9.7 kmh 30.32 in1026.8 mb 0.00 in0.0 mm 0.00 in0.0 mm 0.00 in0.0 mm
10:27 AM 51.8°F11.0°C 26.4°F-3.1°C 37% 2.9 mph NE4.7 kmh NE 6.0 mph9.7 kmh 30.32 in1026.8 mb 0.00 in0.0 mm 0.00 in0.0 mm 0.00 in0.0 mm
10:37 AM 53.1°F11.7°C 25.3°F-3.7°C 34% 2.0 mph NE3.2 kmh NE 4.9 mph7.9 kmh 30.32 in1026.8 mb 0.00 in0.0 mm 0.00 in0.0 mm 0.00 in0.0 mm
10:47 AM 54.3°F12.4°C 25.2°F-3.8°C 32% 2.0 mph NNE3.2 kmh NNE 6.0 mph9.7 kmh 30.32 in1026.8 mb 0.00 in0.0 mm 0.00 in0.0 mm 0.00 in0.0 mm
10:57 AM 55.2°F12.9°C 26.6°F-3.0°C 33% 0.9 mph NNW1.4 kmh NNW 4.0 mph6.4 kmh 30.32 in1026.8 mb 0.00 in0.0 mm 0.00 in0.0 mm 0.00 in0.0 mm
11:07 AM 55.8°F13.2°C 25.5°F-3.6°C 31% 0.9 mph WSW1.4 kmh WSW 4.0 mph6.4 kmh 30.32 in1026.8 mb 0.00 in0.0 mm 0.00 in0.0 mm 0.00 in0.0 mm
11:17 AM 56.5°F13.6°C 24.6°F-4.1°C 29% 0.9 mph SW1.4 kmh SW 4.0 mph6.4 kmh 30.32 in1026.8 mb 0.00 in0.0 mm 0.00 in0.0 mm 0.00 in0.0 mm
11:27 AM 57.2°F14.0°C 24.4°F-4.2°C 28% 0.9 mph NE1.4 kmh NE 2.9 mph4.7 kmh 30.31 in1026.4 mb 0.00 in0.0 mm 0.00 in0.0 mm 0.00 in0.0 mm
11:37 AM 57.9°F14.4°C 23.2°F-4.9°C 26% 0.9 mph NNW1.4 kmh NNW 4.0 mph6.4 kmh 30.31 in1026.4 mb 0.00 in0.0 mm 0.00 in0.0 mm 0.00 in0.0 mm
11:47 AM 58.6°F14.8°C 21.9°F-5.6°C 24% 0.9 mph W1.4 kmh W 4.0 mph6.4 kmh 30.30 in1026.1 mb 0.00 in0.0 mm 0.00 in0.0 mm 0.00 in0.0 mm
11:57 AM 59.7°F15.4°C 18.5°F-7.5°C 20% 0.9 mph ENE1.4 kmh ENE 4.0 mph6.4 kmh 30.30 in1026.1 mb 0.00 in0.0 mm 0.00 in0.0 mm 0.00 in0.0 mm
12:07 PM 59.5°F15.3°C 19.6°F-6.9°C 21% 2.9 mph E4.7 kmh E 7.0 mph11.3 kmh 30.29 in1025.7 mb 0.00 in0.0 mm 0.00 in0.0 mm 0.00 in0.0 mm
12:17 PM 59.7°F15.4°C 22.8°F-5.1°C 24% 2.0 mph N3.2 kmh N 6.0 mph9.7 kmh 30.28 in1025.4 mb 0.00 in0.0 mm 0.00 in0.0 mm 0.00 in0.0 mm
12:27 PM 60.3°F15.7°C 22.3°F-5.4°C 23% 0.9 mph SSE1.4 kmh SSE 6.0 mph9.7 kmh 30.28 in1025.4 mb 0.00 in0.0 mm 0.00 in0.0 mm 0.00 in0.0 mm
12:37 PM 61.2°F16.2°C 23.0°F-5.0°C 23% 2.0 mph WNW3.2 kmh WNW 8.1 mph13.0 kmh 30.27 in1025.1 mb 0.00 in0.0 mm 0.00 in0.0 mm 0.00 in0.0 mm
12:47 PM 60.4°F15.8°C 22.5°F-5.3°C 23% 4.0 mph W6.4 kmh W 9.0 mph14.5 kmh 30.26 in1024.7 mb 0.00 in0.0 mm 0.00 in0.0 mm 0.00 in0.0 mm
12:57 PM 61.2°F16.2°C 23.0°F-5.0°C 23% 0.9 mph NNE1.4 kmh NNE 4.9 mph7.9 kmh 30.25 in1024.4 mb 0.00 in0.0 mm 0.00 in0.0 mm 0.00 in0.0 mm
01:07 PM 61.3°F16.3°C 23.2°F-4.9°C 23% 2.9 mph ENE4.7 kmh ENE 8.9 mph14.3 kmh 30.25 in1024.4 mb 0.00 in0.0 mm 0.00 in0.0 mm 0.00 in0.0 mm
01:17 PM 62.2°F16.8°C 20.7°F-6.3°C 20% 2.0 mph WNW3.2 kmh WNW 6.9 mph11.1 kmh 30.24 in1024.0 mb 0.00 in0.0 mm 0.00 in0.0 mm 0.00 in0.0 mm
01:27 PM 61.5°F16.4°C 25.3°F-3.7°C 25% 4.0 mph W6.4 kmh W 12.1 mph19.5 kmh 30.23 in1023.7 mb 0.00 in0.0 mm 0.00 in0.0 mm 0.00 in0.0 mm
01:37 PM 61.3°F16.3°C 25.2°F-3.8°C 25% 6.0 mph W9.7 kmh W 13.0 mph20.9 kmh 30.23 in1023.7 mb 0.00 in0.0 mm 0.00 in0.0 mm 0.00 in0.0 mm
01:47 PM 60.8°F16.0°C 24.8°F-4.0°C 25% 8.1 mph WNW13.0 kmh WNW 13.0 mph20.9 kmh 30.22 in1023.4 mb 0.00 in0.0 mm 0.00 in0.0 mm 0.00 in0.0 mm
01:57 PM 61.0°F16.1°C 25.9°F-3.4°C 26% 6.0 mph W9.7 kmh W 14.1 mph22.7 kmh 30.22 in1023.4 mb 0.00 in0.0 mm 0.00 in0.0 mm 0.00 in0.0 mm
02:07 PM 60.6°F15.9°C 26.4°F-3.1°C 27% 8.1 mph WSW13.0 kmh WSW 14.1 mph22.7 kmh 30.22 in1023.4 mb 0.00 in0.0 mm 0.00 in0.0 mm 0.00 in0.0 mm
02:17 PM 60.8°F16.0°C 25.7°F-3.5°C 26% 8.1 mph W13.0 kmh W 14.1 mph22.7 kmh 30.22 in1023.4 mb 0.00 in0.0 mm 0.00 in0.0 mm 0.00 in0.0 mm
02:27 PM 60.6°F15.9°C 24.6°F-4.1°C 25% 8.9 mph WNW14.3 kmh WNW 16.1 mph25.9 kmh 30.21 in1023.0 mb 0.00 in0.0 mm 0.00 in0.0 mm 0.00 in0.0 mm
02:37 PM 60.4°F15.8°C 25.3°F-3.7°C 26% 8.9 mph W14.3 kmh W 17.9 mph28.8 kmh 30.21 in1023.0 mb 0.00 in0.0 mm 0.00 in0.0 mm 0.00 in0.0 mm
02:47 PM 60.4°F15.8°C 27.1°F-2.7°C 28% 8.9 mph SW14.3 kmh SW 17.0 mph27.4 kmh 30.21 in1023.0 mb 0.00 in0.0 mm 0.00 in0.0 mm 0.00 in0.0 mm
02:57 PM 60.4°F15.8°C 26.2°F-3.2°C 27% 8.1 mph WNW13.0 kmh WNW 16.1 mph25.9 kmh 30.20 in1022.7 mb 0.00 in0.0 mm 0.00 in0.0 mm 0.00 in0.0 mm
03:07 PM 60.1°F15.6°C 26.8°F-2.9°C 28% 10.1 mph NW16.3 kmh NW 17.0 mph27.4 kmh 30.20 in1022.7 mb 0.00 in0.0 mm 0.00 in0.0 mm 0.00 in0.0 mm
03:17 PM 60.1°F15.6°C 26.1°F-3.3°C 27% 8.9 mph WNW14.3 kmh WNW 17.0 mph27.4 kmh 30.19 in1022.4 mb 0.00 in0.0 mm 0.00 in0.0 mm 0.00 in0.0 mm
03:27 PM 59.5°F15.3°C 26.4°F-3.1°C 28% 11.0 mph W17.7 kmh W 19.0 mph30.6 kmh 30.20 in1022.7 mb 0.00 in0.0 mm 0.00 in0.0 mm 0.00 in0.0 mm
03:37 PM 59.4°F15.2°C 27.1°F-2.7°C 29% 10.1 mph WNW16.3 kmh WNW 17.0 mph27.4 kmh 30.19 in1022.4 mb 0.00 in0.0 mm 0.00 in0.0 mm 0.00 in0.0 mm
03:47 PM 59.4°F15.2°C 27.9°F-2.3°C 30% 10.1 mph W16.3 kmh W 19.0 mph30.6 kmh 30.19 in1022.4 mb 0.00 in0.0 mm 0.00 in0.0 mm 0.00 in0.0 mm
03:57 PM 58.8°F14.9°C 27.5°F-2.5°C 30% 11.0 mph W17.7 kmh W 19.0 mph30.6 kmh 30.19 in1022.4 mb 0.00 in0.0 mm 0.00 in0.0 mm 0.00 in0.0 mm
04:07 PM 59.0°F15.0°C 27.7°F-2.4°C 30% 8.9 mph SW14.3 kmh SW 16.1 mph25.9 kmh 30.19 in1022.4 mb 0.00 in0.0 mm 0.00 in0.0 mm 0.00 in0.0 mm
04:17 PM 58.5°F14.7°C 27.1°F-2.7°C 30% 10.1 mph W16.3 kmh W 16.1 mph25.9 kmh 30.19 in1022.4 mb 0.00 in0.0 mm 0.00 in0.0 mm 0.00 in0.0 mm
04:27 PM 58.5°F14.7°C 27.9°F-2.3°C 31% 10.1 mph SW16.3 kmh SW 17.0 mph27.4 kmh 30.18 in1022.0 mb 0.00 in0.0 mm 0.00 in0.0 mm 0.00 in0.0 mm
04:37 PM 58.5°F14.7°C 29.5°F-1.4°C 33% 8.9 mph WNW14.3 kmh WNW 16.1 mph25.9 kmh 30.19 in1022.4 mb 0.00 in0.0 mm 0.00 in0.0 mm 0.00 in0.0 mm
04:47 PM 58.5°F14.7°C 30.2°F-1.0°C 34% 8.1 mph W13.0 kmh W 14.1 mph22.7 kmh 30.18 in1022.0 mb 0.00 in0.0 mm 0.00 in0.0 mm 0.00 in0.0 mm
04:57 PM 57.9°F14.4°C 32.5°F0.3°C 38% 8.9 mph WNW14.3 kmh WNW 16.1 mph25.9 kmh 30.18 in1022.0 mb 0.00 in0.0 mm 0.00 in0.0 mm 0.00 in0.0 mm
05:07 PM 57.9°F14.4°C 33.1°F0.6°C 39% 8.1 mph WSW13.0 kmh WSW 15.0 mph24.1 kmh 30.18 in1022.0 mb 0.00 in0.0 mm 0.00 in0.0 mm 0.00 in0.0 mm
05:18 PM 57.2°F14.0°C 34.3°F1.3°C 42% 10.1 mph W16.3 kmh W 19.0 mph30.6 kmh 30.18 in1022.0 mb 0.00 in0.0 mm 0.00 in0.0 mm 0.00 in0.0 mm
05:28 PM 57.4°F14.1°C 35.1°F1.7°C 43% 8.1 mph W13.0 kmh W 13.0 mph20.9 kmh 30.18 in1022.0 mb 0.00 in0.0 mm 0.00 in0.0 mm 0.00 in0.0 mm
05:38 PM 57.0°F13.9°C 36.0°F2.2°C 45% 8.1 mph WSW13.0 kmh WSW 15.0 mph24.1 kmh 30.18 in1022.0 mb 0.00 in0.0 mm 0.00 in0.0 mm 0.00 in0.0 mm
05:48 PM 56.7°F13.7°C 36.1°F2.3°C 46% 8.9 mph WSW14.3 kmh WSW 16.1 mph25.9 kmh 30.18 in1022.0 mb 0.00 in0.0 mm 0.00 in0.0 mm 0.00 in0.0 mm
05:58 PM 56.3°F13.5°C 35.8°F2.1°C 46% 6.9 mph WSW11.1 kmh WSW 14.1 mph22.7 kmh 30.18 in1022.0 mb 0.00 in0.0 mm 0.00 in0.0 mm 0.00 in0.0 mm
06:08 PM 56.1°F13.4°C 36.1°F2.3°C 47% 6.0 mph WNW9.7 kmh WNW 12.1 mph19.5 kmh 30.19 in1022.4 mb 0.00 in0.0 mm 0.00 in0.0 mm 0.00 in0.0 mm
06:18 PM 55.8°F13.2°C 36.3°F2.4°C 48% 6.0 mph WNW9.7 kmh WNW 12.1 mph19.5 kmh 30.19 in1022.4 mb 0.00 in0.0 mm 0.00 in0.0 mm 0.00 in0.0 mm
06:28 PM 55.2°F12.9°C 36.3°F2.4°C 49% 4.0 mph SW6.4 kmh SW 11.0 mph17.7 kmh 30.19 in1022.4 mb 0.00 in0.0 mm 0.00 in0.0 mm 0.00 in0.0 mm
06:38 PM 54.7°F12.6°C 37.4°F3.0°C 52% 2.0 mph W3.2 kmh W 6.9 mph11.1 kmh 30.19 in1022.4 mb 0.00 in0.0 mm 0.00 in0.0 mm 0.00 in0.0 mm
06:48 PM 54.0°F12.2°C 37.2°F2.9°C 53% 2.0 mph WSW3.2 kmh WSW 6.9 mph11.1 kmh 30.18 in1022.0 mb 0.00 in0.0 mm 0.00 in0.0 mm 0.00 in0.0 mm
06:58 PM 53.2°F11.8°C 37.4°F3.0°C 55% 0.9 mph W1.4 kmh W 2.9 mph4.7 kmh 30.18 in1022.0 mb 0.00 in0.0 mm 0.00 in0.0 mm 0.00 in0.0 mm
07:08 PM 52.9°F11.6°C 37.6°F3.1°C 56% Calm Calm 4.0 mph6.4 kmh 30.18 in1022.0 mb 0.00 in0.0 mm 0.00 in0.0 mm 0.00 in0.0 mm
07:18 PM 52.3°F11.3°C 37.6°F3.1°C 57% 0.9 mph S1.4 kmh S 3.0 mph4.8 kmh 30.18 in1022.0 mb 0.00 in0.0 mm 0.00 in0.0 mm 0.00 in0.0 mm
07:28 PM 52.0°F11.1°C 37.2°F2.9°C 57% 2.0 mph SE3.2 kmh SE 2.9 mph4.7 kmh 30.19 in1022.4 mb 0.00 in0.0 mm 0.00 in0.0 mm 0.00 in0.0 mm
07:38 PM 50.9°F10.5°C 37.6°F3.1°C 60% 0.9 mph SE1.4 kmh SE 2.0 mph3.2 kmh 30.18 in1022.0 mb 0.00 in0.0 mm 0.00 in0.0 mm 0.00 in0.0 mm
07:48 PM 50.2°F10.1°C 37.2°F2.9°C 61% 0.9 mph SE1.4 kmh SE 2.0 mph3.2 kmh 30.18 in1022.0 mb 0.00 in0.0 mm 0.00 in0.0 mm 0.00 in0.0 mm
07:58 PM 49.8°F9.9°C 37.4°F3.0°C 62% 2.0 mph SE3.2 kmh SE 2.0 mph3.2 kmh 30.18 in1022.0 mb 0.00 in0.0 mm 0.00 in0.0 mm 0.00 in0.0 mm
08:08 PM 49.5°F9.7°C 37.4°F3.0°C 63% 2.0 mph SE3.2 kmh SE 3.0 mph4.8 kmh 30.19 in1022.4 mb 0.00 in0.0 mm 0.00 in0.0 mm 0.00 in0.0 mm
08:18 PM 49.3°F9.6°C 37.2°F2.9°C 63% 2.9 mph SE4.7 kmh SE 2.9 mph4.7 kmh 30.18 in1022.0 mb 0.00 in0.0 mm 0.00 in0.0 mm 0.00 in0.0 mm
08:28 PM 48.7°F9.3°C 37.0°F2.8°C 64% 2.0 mph SE3.2 kmh SE 2.9 mph4.7 kmh 30.19 in1022.4 mb 0.00 in0.0 mm 0.00 in0.0 mm 0.00 in0.0 mm
08:38 PM 48.2°F9.0°C 37.0°F2.8°C 65% 2.0 mph SE3.2 kmh SE 2.9 mph4.7 kmh 30.19 in1022.4 mb 0.00 in0.0 mm 0.00 in0.0 mm 0.00 in0.0 mm
08:48 PM 48.6°F9.2°C 36.9°F2.7°C 64% 2.9 mph SSE4.7 kmh SSE 4.0 mph6.4 kmh 30.18 in1022.0 mb 0.00 in0.0 mm 0.00 in0.0 mm 0.00 in0.0 mm
08:58 PM 48.0°F8.9°C 36.5°F2.5°C 64% 2.0 mph SE3.2 kmh SE 4.0 mph6.4 kmh 30.19 in1022.4 mb 0.00 in0.0 mm 0.00 in0.0 mm 0.00 in0.0 mm
09:08 PM 47.3°F8.5°C 36.5°F2.5°C 66% 0.9 mph SE1.4 kmh SE 2.9 mph4.7 kmh 30.19 in1022.4 mb 0.00 in0.0 mm 0.00 in0.0 mm 0.00 in0.0 mm
09:18 PM 47.1°F8.4°C 36.7°F2.6°C 67% 2.0 mph SE3.2 kmh SE 4.0 mph6.4 kmh 30.19 in1022.4 mb 0.00 in0.0 mm 0.00 in0.0 mm 0.00 in0.0 mm
09:28 PM 46.8°F8.2°C 36.0°F2.2°C 66% 2.0 mph SE3.2 kmh SE 2.9 mph4.7 kmh 30.19 in1022.4 mb 0.00 in0.0 mm 0.00 in0.0 mm 0.00 in0.0 mm
09:38 PM 46.6°F8.1°C 36.5°F2.5°C 68% 2.0 mph SSE3.2 kmh SSE 4.0 mph6.4 kmh 30.19 in1022.4 mb 0.00 in0.0 mm 0.00 in0.0 mm 0.00 in0.0 mm
09:48 PM 46.6°F8.1°C 36.5°F2.5°C 68% 2.0 mph SE3.2 kmh SE 2.9 mph4.7 kmh 30.19 in1022.4 mb 0.00 in0.0 mm 0.00 in0.0 mm 0.00 in0.0 mm
09:58 PM 46.4°F8.0°C 36.9°F2.7°C 69% 2.9 mph SE4.7 kmh SE 4.0 mph6.4 kmh 30.19 in1022.4 mb 0.00 in0.0 mm 0.00 in0.0 mm 0.00 in0.0 mm
10:08 PM 45.7°F7.6°C 35.8°F2.1°C 68% 0.9 mph E1.4 kmh E 2.0 mph3.2 kmh 30.19 in1022.4 mb 0.00 in0.0 mm 0.00 in0.0 mm 0.00 in0.0 mm
10:18 PM 44.4°F6.9°C 34.9°F1.6°C 69% 2.0 mph E3.2 kmh E 4.9 mph7.9 kmh 30.19 in1022.4 mb 0.00 in0.0 mm 0.00 in0.0 mm 0.00 in0.0 mm
10:28 PM 43.5°F6.4°C 34.3°F1.3°C 70% 2.9 mph NE4.7 kmh NE 6.0 mph9.7 kmh 30.19 in1022.4 mb 0.00 in0.0 mm 0.00 in0.0 mm 0.00 in0.0 mm
10:38 PM 43.3°F6.3°C 34.5°F1.4°C 71% 2.0 mph ENE3.2 kmh ENE 4.9 mph7.9 kmh 30.19 in1022.4 mb 0.00 in0.0 mm 0.00 in0.0 mm 0.00 in0.0 mm
10:48 PM 42.8°F6.0°C 34.3°F1.3°C 72% 2.0 mph ENE3.2 kmh ENE 4.9 mph7.9 kmh 30.19 in1022.4 mb 0.00 in0.0 mm 0.00 in0.0 mm 0.00 in0.0 mm
10:58 PM 42.4°F5.8°C 34.3°F1.3°C 73% Calm Calm 2.0 mph3.2 kmh 30.19 in1022.4 mb 0.00 in0.0 mm 0.00 in0.0 mm 0.00 in0.0 mm
11:08 PM 41.7°F5.4°C 34.0°F1.1°C 74% Calm Calm 0.9 mph1.4 kmh 30.18 in1022.0 mb 0.00 in0.0 mm 0.00 in0.0 mm 0.00 in0.0 mm
11:18 PM 40.8°F4.9°C 33.8°F1.0°C 76% Calm Calm 2.0 mph3.2 kmh 30.18 in1022.0 mb 0.00 in0.0 mm 0.00 in0.0 mm 0.00 in0.0 mm
11:28 PM 40.8°F4.9°C 34.2°F1.2°C 77% Calm Calm -- 30.17 in1021.7 mb 0.00 in0.0 mm 0.00 in0.0 mm 0.00 in0.0 mm
11:38 PM 41.0°F5.0°C 34.0°F1.1°C 76% 0.9 mph NE1.4 kmh NE 2.0 mph3.2 kmh 30.17 in1021.7 mb 0.00 in0.0 mm 0.00 in0.0 mm 0.00 in0.0 mm
11:48 PM 40.6°F4.8°C 33.6°F0.9°C 76% 2.0 mph E3.2 kmh E 5.0 mph8.0 kmh 30.17 in1021.7 mb 0.00 in0.0 mm 0.00 in0.0 mm 0.00 in0.0 mm
11:58 PM 40.5°F4.7°C 33.8°F1.0°C 77% 2.0 mph NE3.2 kmh NE 4.9 mph7.9 kmh 30.17 in1021.7 mb 0.00 in0.0 mm 0.00 in0.0 mm 0.00 in0.0 mm